createdAt,value
2022-09-06T00:02:21.246Z,14.01
2022-09-06T00:04:49.440Z,14.17
2022-09-06T00:07:17.187Z,14.18
2022-09-06T00:09:44.725Z,14.14
2022-09-06T00:12:14.064Z,13.97
2022-09-06T00:14:41.607Z,13.86
2022-09-06T00:17:09.403Z,13.75
2022-09-06T00:19:37.329Z,13.88
2022-09-06T00:22:04.790Z,13.83
2022-09-06T00:24:32.547Z,13.59
2022-09-06T00:27:00.260Z,13.31
2022-09-06T00:29:27.669Z,13.66
2022-09-06T00:31:55.563Z,13.72
2022-09-06T00:34:22.903Z,13.51
2022-09-06T00:36:50.365Z,13.90
2022-09-06T00:39:17.730Z,13.90
2022-09-06T00:41:45.360Z,13.88
2022-09-06T00:44:12.729Z,14.03
2022-09-06T00:46:40.414Z,13.93
2022-09-06T00:49:24.286Z,14.04
2022-09-06T00:51:52.624Z,13.97
2022-09-06T00:54:20.080Z,13.85
2022-09-06T00:56:47.617Z,13.94
2022-09-06T00:59:15.119Z,13.75
2022-09-06T01:01:42.661Z,13.76
2022-09-06T01:04:10.261Z,13.93
2022-09-06T01:06:48.558Z,14.05
2022-09-06T01:09:34.833Z,14.12
2022-09-06T01:12:10.326Z,14.05
2022-09-06T01:14:56.604Z,14.22
2022-09-06T01:17:42.005Z,14.19
2022-09-06T01:20:28.321Z,14.24
2022-09-06T01:23:04.768Z,14.26
2022-09-06T01:25:38.243Z,14.19
2022-09-06T01:28:11.562Z,14.25
2022-09-06T01:30:40.611Z,14.13
2022-09-06T01:33:14.318Z,14.02
2022-09-06T01:35:48.713Z,14.22
2022-09-06T01:38:16.076Z,14.00
2022-09-06T01:40:43.494Z,13.80
2022-09-06T01:43:11.375Z,14.04
2022-09-06T01:45:45.962Z,14.30
2022-09-06T01:48:16.461Z,14.02
2022-09-06T01:51:02.267Z,14.16
2022-09-06T01:53:44.325Z,14.13
2022-09-06T01:56:38.263Z,14.05
2022-09-06T01:59:11.926Z,13.90
2022-09-06T02:01:58.595Z,13.73
2022-09-06T02:04:30.855Z,13.74
2022-09-06T02:06:59.425Z,13.81
2022-09-06T02:09:27.000Z,13.79
2022-09-06T02:11:56.653Z,13.84
2022-09-06T02:14:26.600Z,14.03
2022-09-06T02:16:54.128Z,14.03
2022-09-06T02:19:22.143Z,13.93
2022-09-06T02:21:49.575Z,14.01
2022-09-06T02:24:19.012Z,13.85
2022-09-06T02:26:46.644Z,14.04
2022-09-06T02:29:14.391Z,13.86
2022-09-06T02:31:45.698Z,14.03
2022-09-06T02:34:17.955Z,13.97
2022-09-06T02:36:45.747Z,13.94
2022-09-06T02:39:13.203Z,13.84
2022-09-06T02:41:41.335Z,13.66
2022-09-06T02:44:08.768Z,13.84
2022-09-06T02:46:36.238Z,14.04
2022-09-06T02:49:04.012Z,13.87
2022-09-06T02:51:36.130Z,13.85
2022-09-06T02:54:03.623Z,13.47
2022-09-06T02:56:33.893Z,13.21
2022-09-06T02:59:01.400Z,13.17
2022-09-06T03:01:28.857Z,13.44
2022-09-06T03:03:57.500Z,13.75
2022-09-06T03:06:24.902Z,13.67
2022-09-06T03:08:52.736Z,13.76
2022-09-06T03:11:21.881Z,13.29
2022-09-06T03:13:51.216Z,13.37
2022-09-06T03:16:19.068Z,13.33
2022-09-06T03:18:47.094Z,13.49
2022-09-06T03:21:14.811Z,13.67
2022-09-06T03:23:42.344Z,13.60
2022-09-06T03:26:09.744Z,13.30
2022-09-06T03:28:37.444Z,13.56
2022-09-06T03:31:04.970Z,13.52
2022-09-06T03:33:32.613Z,13.61
2022-09-06T03:36:00.432Z,13.61
2022-09-06T03:38:28.270Z,13.76
2022-09-06T03:40:55.717Z,13.66
2022-09-06T03:43:23.765Z,13.75
2022-09-06T03:45:52.142Z,13.60
2022-09-06T03:48:20.527Z,13.48
2022-09-06T03:50:51.760Z,13.68
2022-09-06T03:53:19.273Z,13.70
2022-09-06T03:55:47.524Z,13.51
2022-09-06T03:58:16.430Z,13.52
2022-09-06T04:00:44.672Z,13.64
2022-09-06T04:03:12.226Z,13.62
2022-09-06T04:05:40.016Z,13.67
2022-09-06T04:08:07.644Z,13.63
2022-09-06T04:10:35.948Z,13.51
2022-09-06T04:13:03.370Z,13.44
2022-09-06T04:15:31.291Z,13.72
2022-09-06T04:17:59.272Z,13.77
2022-09-06T04:20:26.830Z,13.63
2022-09-06T04:22:54.188Z,13.68
2022-09-06T04:25:21.659Z,13.55
2022-09-06T04:27:49.059Z,13.62
2022-09-06T04:30:16.778Z,13.59
2022-09-06T04:32:44.162Z,13.39
2022-09-06T04:35:11.529Z,13.45
2022-09-06T04:37:38.986Z,13.53
2022-09-06T04:40:07.003Z,13.56
2022-09-06T04:42:34.513Z,13.69
2022-09-06T04:45:01.855Z,13.47
2022-09-06T04:47:29.394Z,13.61
2022-09-06T04:49:56.949Z,13.69
2022-09-06T04:52:29.479Z,13.75
2022-09-06T04:54:57.635Z,13.91
2022-09-06T04:57:25.096Z,13.87
2022-09-06T04:59:52.477Z,14.15
2022-09-06T05:02:20.026Z,14.22
2022-09-06T05:04:48.781Z,14.25
2022-09-06T05:07:16.212Z,14.21
2022-09-06T05:09:43.664Z,14.35
2022-09-06T05:12:11.088Z,14.01
2022-09-06T05:14:38.557Z,14.12
2022-09-06T05:17:06.545Z,13.93
2022-09-06T05:19:33.984Z,14.16
2022-09-06T05:22:01.473Z,14.46
2022-09-06T05:24:28.940Z,14.38
2022-09-06T05:26:56.798Z,14.60
2022-09-06T05:29:27.578Z,14.71
2022-09-06T05:31:58.598Z,14.74
2022-09-06T05:34:26.233Z,14.97
2022-09-06T05:36:54.643Z,14.89
2022-09-06T05:39:22.229Z,14.85
2022-09-06T05:41:49.584Z,15.04
2022-09-06T05:44:17.003Z,15.05
2022-09-06T05:46:45.469Z,14.79
2022-09-06T05:49:13.187Z,14.87
2022-09-06T05:51:41.035Z,14.96
2022-09-06T05:54:12.997Z,15.30
2022-09-06T05:56:40.491Z,15.16
2022-09-06T05:59:07.820Z,15.51
2022-09-06T06:01:35.392Z,15.27
2022-09-06T06:04:05.631Z,15.53
2022-09-06T06:06:34.321Z,15.52
2022-09-06T06:09:01.713Z,15.59
2022-09-06T06:11:31.161Z,15.55
2022-09-06T06:13:59.547Z,15.48
2022-09-06T06:16:26.921Z,15.74
2022-09-06T06:18:54.310Z,15.82
2022-09-06T06:21:21.817Z,15.83
2022-09-06T06:23:50.199Z,15.88
2022-09-06T06:26:17.842Z,16.15
2022-09-06T06:28:45.474Z,16.10
2022-09-06T06:31:13.011Z,16.27
2022-09-06T06:33:40.538Z,16.34
2022-09-06T06:36:18.509Z,16.18
2022-09-06T06:38:46.304Z,16.37
2022-09-06T06:41:14.576Z,16.36
2022-09-06T06:43:42.100Z,16.32
2022-09-06T06:46:10.475Z,16.33
2022-09-06T06:48:38.247Z,16.52
2022-09-06T06:51:05.841Z,16.68
2022-09-06T06:53:33.285Z,16.53
2022-09-06T06:56:00.988Z,16.72
2022-09-06T06:58:28.582Z,16.59
2022-09-06T07:00:56.364Z,16.52
2022-09-06T07:03:23.915Z,16.71
2022-09-06T07:08:39.928Z,16.81
2022-09-06T07:11:07.811Z,17.00
2022-09-06T07:13:35.584Z,16.84
2022-09-06T07:16:09.805Z,16.92
2022-09-06T07:18:43.463Z,17.04
2022-09-06T07:24:06.216Z,19.95
2022-09-06T07:26:35.463Z,22.97
2022-09-06T07:29:03.359Z,24.82
2022-09-06T07:34:21.003Z,28.45
2022-09-06T07:36:48.812Z,28.12
2022-09-06T07:39:16.180Z,28.00
2022-09-06T07:41:43.599Z,28.17
2022-09-06T07:44:11.106Z,28.43
2022-09-06T07:46:38.969Z,26.74
2022-09-06T07:49:07.539Z,27.17
2022-09-06T07:51:35.480Z,28.67
2022-09-06T07:56:51.561Z,26.50
2022-09-06T07:59:19.005Z,25.15
2022-09-06T08:01:47.741Z,22.80
2022-09-06T08:04:15.727Z,24.06
2022-09-06T08:09:31.394Z,27.59
2022-09-06T08:11:59.189Z,26.15
2022-09-06T08:14:26.876Z,23.89
2022-09-06T08:16:54.980Z,21.99
2022-09-06T08:19:22.583Z,21.23
2022-09-06T08:21:50.056Z,21.38
2022-09-06T08:24:17.539Z,22.23
2022-09-06T08:26:45.029Z,25.60
2022-09-06T08:29:12.520Z,25.49
2022-09-06T08:31:41.127Z,24.72
2022-09-06T08:34:12.775Z,23.29
2022-09-06T11:48:35.362Z,19.79
2022-09-06T11:51:03.077Z,19.71
2022-09-06T11:53:50.705Z,19.83
2022-09-06T11:56:36.456Z,19.65
2022-09-06T11:59:06.795Z,19.79
2022-09-06T12:01:34.806Z,19.95
2022-09-06T12:06:35.773Z,20.45
2022-09-06T12:09:03.296Z,20.04
2022-09-06T12:11:35.365Z,19.92
2022-09-06T12:14:21.898Z,19.59
2022-09-06T12:17:02.184Z,19.55
2022-09-06T12:19:54.656Z,19.24
2022-09-06T12:22:32.886Z,19.19
2022-09-06T12:25:21.090Z,19.06
2022-09-06T12:27:55.762Z,19.03
2022-09-06T12:30:39.813Z,19.25
2022-09-06T12:33:26.413Z,19.25
2022-09-06T12:38:26.474Z,19.04
2022-09-06T12:40:58.600Z,18.79
2022-09-06T12:43:26.462Z,19.19
2022-09-06T12:45:53.876Z,19.02
2022-09-06T12:48:27.684Z,19.06
2022-09-06T12:51:07.618Z,18.79
2022-09-06T12:53:35.346Z,18.92
2022-09-06T12:56:06.447Z,18.88
2022-09-06T12:58:34.063Z,18.84
2022-09-06T13:01:08.251Z,18.62
2022-09-06T13:03:38.491Z,18.49
2022-09-06T13:06:06.660Z,18.65
2022-09-06T13:08:35.333Z,18.75
2022-09-06T13:11:02.951Z,19.00
2022-09-06T13:13:30.350Z,18.88
2022-09-06T13:15:57.897Z,18.78
2022-09-06T13:18:33.087Z,18.82
2022-09-06T13:21:05.212Z,18.68
2022-09-06T13:23:42.666Z,18.70
2022-09-06T13:26:11.028Z,18.63
2022-09-06T13:28:38.864Z,18.30
2022-09-06T13:31:10.394Z,18.44
2022-09-06T13:33:38.373Z,18.36
2022-09-06T13:36:08.636Z,18.49
2022-09-06T13:38:41.970Z,18.53
2022-09-06T13:41:24.702Z,18.06
2022-09-06T13:44:03.934Z,18.09
2022-09-06T13:46:32.598Z,18.22
2022-09-06T13:49:01.507Z,18.48
2022-09-06T13:51:44.642Z,17.99
2022-09-06T13:54:17.048Z,18.07
2022-09-06T13:56:52.363Z,18.11
2022-09-06T13:59:21.473Z,18.10
2022-09-06T14:02:13.843Z,17.92
2022-09-06T14:04:44.319Z,18.05
2022-09-06T14:07:12.793Z,18.17
2022-09-06T14:09:44.544Z,18.18
2022-09-06T14:12:31.296Z,18.05
2022-09-06T14:15:03.743Z,18.04
2022-09-06T14:17:33.762Z,18.21
2022-09-06T14:20:04.864Z,18.01
2022-09-06T14:22:33.308Z,17.95
2022-09-06T14:25:01.253Z,17.96
2022-09-06T14:27:29.085Z,18.01
2022-09-06T14:29:56.702Z,17.97
2022-09-06T14:32:26.015Z,17.51
2022-09-06T14:35:04.931Z,17.67
2022-09-06T14:37:37.238Z,17.78
2022-09-06T14:40:26.876Z,17.96
2022-09-06T14:43:00.666Z,17.89
2022-09-06T14:45:28.768Z,18.01
2022-09-06T14:48:05.190Z,17.72
2022-09-06T14:50:37.655Z,17.55
2022-09-06T14:53:15.046Z,17.54
2022-09-06T14:55:51.810Z,18.00
2022-09-06T14:58:19.431Z,17.36
2022-09-06T15:00:49.468Z,17.26
2022-09-06T15:03:17.029Z,17.39
2022-09-06T15:05:44.471Z,17.28
2022-09-06T15:08:12.247Z,17.31
2022-09-06T15:10:39.886Z,17.29
2022-09-06T15:13:07.925Z,17.32
2022-09-06T15:15:35.482Z,17.32
2022-09-06T15:18:03.078Z,17.31
2022-09-06T15:20:30.709Z,17.05
2022-09-06T15:23:21.687Z,17.30
2022-09-06T15:25:46.713Z,17.03
2022-09-06T15:28:15.296Z,17.13
2022-09-06T15:30:43.131Z,17.15
2022-09-06T15:33:10.924Z,17.28
2022-09-06T15:35:38.760Z,17.17
2022-09-06T15:38:06.656Z,16.99
2022-09-06T15:40:34.920Z,16.86
2022-09-06T15:43:03.468Z,16.72
2022-09-06T15:45:31.173Z,16.68
2022-09-06T15:47:58.804Z,16.91
2022-09-06T15:50:49.915Z,16.66
2022-09-06T15:53:13.988Z,16.87
2022-09-06T15:55:56.790Z,16.64
2022-09-06T15:58:27.535Z,16.80
2022-09-06T16:01:14.877Z,16.62
2022-09-06T16:03:46.300Z,16.80
2022-09-06T16:06:30.869Z,16.52
2022-09-06T16:08:59.668Z,16.74
2022-09-06T16:11:27.710Z,16.50
2022-09-06T16:13:55.403Z,16.13
2022-09-06T16:16:23.169Z,16.21
2022-09-06T16:18:52.395Z,16.02
2022-09-06T16:21:20.229Z,16.33
2022-09-06T16:23:55.109Z,16.27
2022-09-06T16:26:23.707Z,16.38
2022-09-06T16:28:51.425Z,16.51
2022-09-06T16:31:19.181Z,16.31
2022-09-06T16:33:49.007Z,16.45
2022-09-06T16:36:16.739Z,16.37
2022-09-06T16:38:44.325Z,16.26
2022-09-06T16:41:18.376Z,16.21
2022-09-06T16:43:46.279Z,16.26
2022-09-06T16:46:13.995Z,16.01
2022-09-06T16:48:41.899Z,16.11
2022-09-06T16:51:13.620Z,15.91
2022-09-06T16:53:41.857Z,16.00
2022-09-06T16:56:10.110Z,15.98
2022-09-06T16:58:39.551Z,15.96
2022-09-06T17:01:09.616Z,15.62
2022-09-06T17:03:38.293Z,15.62
2022-09-06T17:06:06.957Z,15.95
2022-09-06T17:08:35.223Z,15.74
2022-09-06T17:11:03.447Z,15.56
2022-09-06T17:13:32.301Z,15.46
2022-09-06T17:16:22.025Z,15.31
2022-09-06T17:18:50.419Z,15.57
2022-09-06T17:21:17.994Z,15.32
2022-09-06T17:23:45.529Z,15.15
2022-09-06T17:26:13.555Z,15.41
2022-09-06T17:28:41.055Z,15.43
2022-09-06T17:31:09.447Z,15.25
2022-09-06T17:33:37.255Z,15.21
2022-09-06T17:36:06.005Z,15.27
2022-09-06T17:38:33.833Z,15.21
2022-09-06T17:41:01.432Z,15.21
2022-09-06T17:43:29.239Z,14.98
2022-09-06T17:45:56.820Z,14.93
2022-09-06T17:48:25.417Z,14.78
2022-09-06T17:50:53.868Z,14.74
2022-09-06T17:53:21.580Z,14.84
2022-09-06T17:55:52.223Z,14.82
2022-09-06T17:58:20.197Z,15.03
2022-09-06T18:00:48.067Z,14.72
2022-09-06T18:03:15.763Z,14.73
2022-09-06T18:05:43.908Z,14.70
2022-09-06T18:08:13.119Z,14.79
2022-09-06T18:10:40.761Z,14.86
2022-09-06T18:13:08.301Z,14.95
2022-09-06T18:15:39.147Z,14.69
2022-09-06T18:18:07.556Z,14.73
2022-09-06T18:20:35.969Z,14.85
2022-09-06T18:23:03.584Z,14.55
2022-09-06T18:25:31.555Z,14.53
2022-09-06T18:27:59.155Z,14.49
2022-09-06T18:30:27.019Z,14.57
2022-09-06T18:32:54.837Z,14.69
2022-09-06T18:35:22.424Z,14.63
2022-09-06T18:37:50.183Z,14.80
2022-09-06T18:40:18.206Z,14.64
2022-09-06T18:42:46.581Z,14.38
2022-09-06T18:45:14.267Z,14.52
2022-09-06T18:47:42.955Z,14.48
2022-09-06T18:50:10.493Z,14.53
2022-09-06T18:52:39.275Z,14.37
2022-09-06T18:55:06.971Z,14.23
2022-09-06T18:57:34.643Z,14.15
2022-09-06T19:00:02.311Z,14.21
2022-09-06T19:02:30.123Z,14.30
2022-09-06T19:04:59.378Z,14.24
2022-09-06T19:07:29.626Z,14.26
2022-09-06T19:09:57.877Z,14.33
2022-09-06T19:12:25.401Z,14.58
2022-09-06T19:14:53.080Z,14.28
2022-09-06T19:17:20.551Z,14.21
2022-09-06T19:19:48.054Z,14.32
2022-09-06T19:22:15.508Z,14.31
2022-09-06T19:24:44.506Z,14.49
2022-09-06T19:27:12.289Z,14.30
2022-09-06T19:29:39.817Z,14.48
2022-09-06T19:32:07.287Z,14.43
2022-09-06T19:34:34.837Z,14.47
2022-09-06T19:37:02.446Z,14.50
2022-09-06T19:39:36.310Z,14.39
2022-09-06T19:42:04.928Z,14.30
2022-09-06T19:44:33.586Z,14.51
2022-09-06T19:47:02.291Z,14.42
2022-09-06T19:49:30.954Z,14.56
2022-09-06T19:51:58.473Z,14.54
2022-09-06T19:54:26.896Z,14.25
2022-09-06T19:56:55.099Z,14.19
2022-09-06T19:59:23.280Z,14.16
2022-09-06T20:01:50.936Z,14.06
2022-09-06T20:04:20.117Z,14.00
2022-09-06T20:06:48.209Z,13.82
2022-09-06T20:09:16.084Z,13.79
2022-09-06T20:11:43.708Z,13.87
2022-09-06T20:14:11.415Z,13.77
2022-09-06T20:16:42.072Z,13.67
2022-09-06T20:19:10.693Z,13.86
2022-09-06T20:21:38.239Z,13.84
2022-09-06T20:24:06.252Z,13.75
2022-09-06T20:26:34.018Z,13.77
2022-09-06T20:29:02.611Z,13.95
2022-09-06T20:31:30.659Z,13.93
2022-09-06T20:33:59.676Z,13.79
2022-09-06T20:36:28.563Z,13.73
2022-09-06T20:38:56.187Z,13.86
2022-09-06T20:41:24.383Z,14.01
2022-09-06T20:43:56.216Z,13.91
2022-09-06T20:46:25.461Z,14.01
2022-09-06T20:48:53.396Z,13.87
2022-09-06T20:51:21.648Z,13.85
2022-09-06T20:53:53.458Z,13.89
2022-09-06T20:56:21.763Z,14.00
2022-09-06T20:59:01.044Z,14.00
2022-09-06T21:01:29.661Z,13.94
2022-09-06T21:03:58.145Z,14.15
2022-09-06T21:06:26.045Z,14.10
2022-09-06T21:08:53.907Z,14.13
2022-09-06T21:11:21.608Z,13.95
2022-09-06T21:13:51.251Z,13.89
2022-09-06T21:16:23.922Z,14.14
2022-09-06T21:18:52.884Z,13.89
2022-09-06T21:21:20.466Z,13.89
2022-09-06T21:23:48.324Z,13.94
2022-09-06T21:26:18.853Z,13.83
2022-09-06T21:28:46.563Z,13.74
2022-09-06T21:31:14.194Z,13.81
2022-09-06T21:33:43.202Z,13.68
2022-09-06T21:36:11.724Z,13.52
2022-09-06T21:38:40.693Z,13.86
2022-09-06T21:41:08.448Z,13.71
2022-09-06T21:43:35.999Z,13.52
2022-09-06T21:46:03.947Z,13.61
2022-09-06T21:48:32.111Z,13.49
2022-09-06T21:50:59.598Z,13.42
2022-09-06T21:53:27.265Z,13.48
2022-09-06T21:56:04.065Z,13.31
2022-09-06T21:58:31.683Z,13.37
2022-09-06T22:00:59.473Z,13.40
2022-09-06T22:03:27.440Z,13.29
2022-09-06T22:05:55.515Z,13.09
2022-09-06T22:08:23.287Z,13.04
2022-09-06T22:10:51.041Z,12.96
2022-09-06T22:13:18.962Z,12.84
2022-09-06T22:15:46.888Z,12.81
2022-09-06T22:18:14.483Z,12.48
2022-09-06T22:20:41.988Z,12.54
2022-09-06T22:23:10.085Z,12.48
2022-09-06T22:25:37.858Z,12.44
2022-09-06T22:28:05.346Z,12.16
2022-09-06T22:30:32.790Z,12.28
2022-09-06T22:33:00.747Z,12.22
2022-09-06T22:35:28.282Z,12.14
2022-09-06T22:37:55.835Z,12.26
2022-09-06T22:40:23.385Z,12.10
2022-09-06T22:42:50.862Z,12.18
2022-09-06T22:45:18.429Z,12.23
2022-09-06T22:47:46.242Z,12.17
2022-09-06T22:50:13.708Z,12.15
2022-09-06T22:52:41.381Z,12.17
2022-09-06T22:55:09.302Z,12.16
2022-09-06T22:57:36.866Z,12.15
2022-09-06T23:00:05.655Z,12.11
2022-09-06T23:02:33.591Z,12.08
2022-09-06T23:05:01.164Z,12.21
2022-09-06T23:07:28.894Z,12.29
2022-09-06T23:09:56.404Z,12.19
2022-09-06T23:12:23.961Z,12.12
2022-09-06T23:14:51.496Z,12.12
2022-09-06T23:17:19.225Z,12.04
2022-09-06T23:19:46.739Z,11.96
2022-09-06T23:22:14.248Z,12.01
2022-09-06T23:24:42.033Z,11.84
2022-09-06T23:27:09.641Z,11.71
2022-09-06T23:29:41.050Z,11.73
2022-09-06T23:32:08.619Z,11.43
2022-09-06T23:34:37.113Z,11.59
2022-09-06T23:37:04.912Z,11.50
2022-09-06T23:39:33.330Z,11.43
2022-09-06T23:42:02.210Z,11.54
2022-09-06T23:44:29.754Z,11.58
2022-09-06T23:46:57.339Z,11.60
2022-09-06T23:49:24.856Z,11.52
2022-09-06T23:51:53.677Z,11.46
2022-09-06T23:54:21.178Z,11.54
2022-09-06T23:56:48.819Z,11.51
2022-09-06T23:59:16.292Z,11.57
